createdAt,value
2024-01-11T00:01:53.615Z,20.05
2024-01-11T00:04:57.086Z,17.23
2024-01-11T00:08:00.181Z,17.58
2024-01-11T00:11:03.836Z,17.35
2024-01-11T00:14:06.720Z,17.93
2024-01-11T00:17:09.974Z,17.80
2024-01-11T00:20:13.168Z,17.12
2024-01-11T00:23:17.064Z,16.70
2024-01-11T00:26:20.206Z,17.05
2024-01-11T00:29:23.321Z,18.98
2024-01-11T00:32:26.272Z,17.40
2024-01-11T00:35:30.796Z,17.75
2024-01-11T00:38:34.205Z,18.83
2024-01-11T00:41:37.726Z,16.92
2024-01-11T00:44:40.616Z,16.80
2024-01-11T00:47:44.222Z,17.17
2024-01-11T00:50:48.449Z,16.73
2024-01-11T00:53:51.712Z,17.30
2024-01-11T00:56:54.801Z,17.58
2024-01-11T00:59:58.100Z,17.00
2024-01-11T01:03:00.873Z,15.65
2024-01-11T01:06:04.788Z,17.90
2024-01-11T01:09:07.892Z,15.05
2024-01-11T01:12:11.707Z,17.12
2024-01-11T01:15:18.135Z,18.23
2024-01-11T01:18:21.442Z,18.20
2024-01-11T01:21:24.534Z,16.85
2024-01-11T01:24:27.883Z,18.43
2024-01-11T01:27:30.845Z,16.50
2024-01-11T01:30:34.265Z,15.27
2024-01-11T01:33:37.462Z,16.12
2024-01-11T01:36:42.717Z,16.58
2024-01-11T01:39:45.886Z,15.73
2024-01-11T01:42:50.406Z,15.30
2024-01-11T01:45:54.057Z,15.27
2024-01-11T01:48:59.569Z,16.65
2024-01-11T01:52:04.573Z,15.70
2024-01-11T01:55:10.344Z,14.90
2024-01-11T01:58:14.568Z,13.25
2024-01-11T02:01:19.016Z,16.25
2024-01-11T02:04:24.271Z,16.08
2024-01-11T02:07:27.637Z,15.57
2024-01-11T02:10:34.234Z,12.95
2024-01-11T02:13:37.497Z,16.15
2024-01-11T02:16:40.440Z,14.40
2024-01-11T02:19:43.553Z,14.70
2024-01-11T02:22:51.890Z,14.45
2024-01-11T02:25:55.218Z,13.13
2024-01-11T02:28:59.637Z,16.12
2024-01-11T02:32:04.289Z,16.25
2024-01-11T02:35:07.829Z,15.27
2024-01-11T02:38:11.215Z,16.12
2024-01-11T02:41:17.337Z,16.27
2024-01-11T02:44:20.803Z,16.00
2024-01-11T02:47:23.741Z,14.93
2024-01-11T02:50:26.997Z,15.93
2024-01-11T02:53:35.637Z,79.68
2024-01-11T02:56:39.484Z,47.77
2024-01-11T02:59:44.741Z,24.60
2024-01-11T03:02:48.008Z,15.93
2024-01-11T03:05:50.970Z,15.35
2024-01-11T03:08:54.375Z,12.75
2024-01-11T03:11:57.236Z,15.82
2024-01-11T03:15:01.102Z,18.37
2024-01-11T03:18:04.525Z,15.33
2024-01-11T03:21:08.141Z,13.20
2024-01-11T03:24:11.141Z,14.25
2024-01-11T03:27:14.441Z,14.07
2024-01-11T03:30:18.035Z,14.52
2024-01-11T03:33:21.876Z,14.65
2024-01-11T03:36:28.812Z,13.05
2024-01-11T03:39:32.087Z,9.38
2024-01-11T03:42:35.439Z,13.25
2024-01-11T03:45:38.683Z,14.77
2024-01-11T03:48:41.813Z,11.40
2024-01-11T03:51:47.878Z,11.95
2024-01-11T03:54:52.102Z,16.12
2024-01-11T03:57:55.435Z,14.67
2024-01-11T04:00:58.688Z,13.75
2024-01-11T04:04:02.598Z,15.65
2024-01-11T04:07:05.922Z,15.38
2024-01-11T04:10:10.826Z,15.75
2024-01-11T04:13:14.972Z,15.32
2024-01-11T04:16:18.375Z,12.15
2024-01-11T04:19:23.707Z,12.50
2024-01-11T04:22:31.214Z,11.48
2024-01-11T04:25:34.480Z,12.73
2024-01-11T04:28:39.114Z,12.37
2024-01-11T04:31:43.749Z,12.82
2024-01-11T04:34:47.160Z,12.32
2024-01-11T04:37:50.075Z,12.05
2024-01-11T04:40:53.145Z,10.88
2024-01-11T04:43:56.400Z,12.77
2024-01-11T04:47:02.225Z,12.05
2024-01-11T04:50:06.277Z,14.27
2024-01-11T04:53:09.530Z,16.52
2024-01-11T04:56:17.809Z,15.27
2024-01-11T04:59:21.315Z,16.30
2024-01-11T05:02:24.731Z,15.75
2024-01-11T05:05:28.235Z,16.05
2024-01-11T05:08:31.840Z,14.52
2024-01-11T05:11:35.233Z,16.02
2024-01-11T05:14:39.885Z,16.50
2024-01-11T05:17:44.889Z,15.25
2024-01-11T05:20:50.986Z,17.97
2024-01-11T05:23:54.281Z,16.23
2024-01-11T05:26:57.268Z,19.95
2024-01-11T05:30:00.878Z,17.73
2024-01-11T05:33:05.305Z,14.13
2024-01-11T05:36:09.410Z,17.10
2024-01-11T05:39:13.663Z,16.12
2024-01-11T05:42:21.293Z,17.33
2024-01-11T05:45:29.197Z,16.37
2024-01-11T05:48:43.520Z,18.50
2024-01-11T05:51:46.949Z,17.50
2024-01-11T05:54:50.314Z,16.08
2024-01-11T05:57:53.458Z,16.08
2024-01-11T06:00:57.131Z,18.17
2024-01-11T06:04:00.580Z,17.48
2024-01-11T06:07:03.867Z,17.30
2024-01-11T06:10:07.853Z,17.80
2024-01-11T06:13:11.188Z,13.10
2024-01-11T06:16:15.177Z,15.95
2024-01-11T06:19:18.513Z,15.25
2024-01-11T06:22:22.479Z,18.70
2024-01-11T06:25:25.793Z,15.65
2024-01-11T06:28:29.170Z,13.70
2024-01-11T06:31:32.292Z,17.30
2024-01-11T06:34:37.390Z,15.15
2024-01-11T06:37:40.395Z,22.58
2024-01-11T06:40:44.976Z,32.88
2024-01-11T06:43:48.084Z,21.70
2024-01-11T06:46:52.160Z,13.85
2024-01-11T06:49:55.319Z,15.20
2024-01-11T06:52:58.557Z,16.27
2024-01-11T06:56:02.181Z,12.95
2024-01-11T06:59:05.681Z,19.60
2024-01-11T07:02:09.202Z,21.93
2024-01-11T07:05:13.953Z,15.60
2024-01-11T07:08:17.051Z,28.35
2024-01-11T07:11:20.680Z,15.90
2024-01-11T07:14:24.232Z,23.42
2024-01-11T07:17:27.802Z,21.62
2024-01-11T07:20:31.256Z,17.27
2024-01-11T07:23:35.840Z,23.77
2024-01-11T07:26:38.650Z,25.10
2024-01-11T07:29:42.080Z,19.37
2024-01-11T07:32:45.159Z,19.67
2024-01-11T07:35:49.537Z,18.50
2024-01-11T07:38:52.931Z,13.88
2024-01-11T07:41:56.993Z,19.73
2024-01-11T07:45:00.385Z,16.25
2024-01-11T07:48:05.292Z,18.00
2024-01-11T07:51:09.044Z,30.23
2024-01-11T07:54:12.513Z,23.63
2024-01-11T07:57:15.504Z,21.77
2024-01-11T08:00:18.969Z,23.35
2024-01-11T08:03:22.258Z,21.73
2024-01-11T08:06:25.761Z,21.37
2024-01-11T08:09:29.957Z,23.08
2024-01-11T08:12:33.064Z,34.42
2024-01-11T08:15:36.521Z,28.30
2024-01-11T08:18:39.544Z,38.47
2024-01-11T08:21:43.562Z,35.55
2024-01-11T08:24:46.777Z,33.93
2024-01-11T08:27:50.214Z,40.22
2024-01-11T08:30:53.586Z,26.27
2024-01-11T08:33:58.675Z,36.67
2024-01-11T08:37:01.885Z,36.33
2024-01-11T08:40:07.266Z,37.10
2024-01-11T08:43:12.661Z,34.25
2024-01-11T08:46:27.826Z,33.40
2024-01-11T08:49:31.925Z,30.10
2024-01-11T08:52:38.235Z,26.52
2024-01-11T08:55:43.332Z,26.98
2024-01-11T08:58:48.180Z,27.93
2024-01-11T09:01:57.750Z,26.70
2024-01-11T09:05:15.932Z,26.85
2024-01-11T09:08:19.134Z,29.27
2024-01-11T09:11:23.133Z,20.17
2024-01-11T09:14:27.065Z,21.93
2024-01-11T09:17:30.680Z,22.77
2024-01-11T09:20:35.279Z,21.48
2024-01-11T09:23:39.428Z,23.52
2024-01-11T09:26:43.629Z,23.00
2024-01-11T09:29:50.078Z,17.17
2024-01-11T09:32:54.722Z,19.23
2024-01-11T09:35:58.340Z,18.05
2024-01-11T09:39:01.733Z,20.17
2024-01-11T09:42:14.114Z,19.02
2024-01-11T09:45:18.721Z,20.13
2024-01-11T09:48:24.611Z,18.10
2024-01-11T09:51:30.630Z,17.48
2024-01-11T09:54:33.926Z,18.60
2024-01-11T09:57:42.261Z,19.35
2024-01-11T10:00:48.356Z,20.20
2024-01-11T10:03:54.504Z,22.17
2024-01-11T10:06:58.846Z,20.42
2024-01-11T10:10:04.755Z,19.92
2024-01-11T10:13:08.459Z,19.30
2024-01-11T10:16:16.719Z,16.43
2024-01-11T10:19:23.063Z,19.53
2024-01-11T10:22:27.508Z,19.87
2024-01-11T10:25:30.892Z,16.12
2024-01-11T10:28:39.179Z,17.23
2024-01-11T10:31:42.475Z,17.93
2024-01-11T10:34:46.202Z,12.90
2024-01-11T10:37:52.466Z,13.62
2024-01-11T10:40:57.790Z,14.40
2024-01-11T10:44:03.155Z,12.57
2024-01-11T10:47:10.975Z,12.27
2024-01-11T10:50:15.089Z,12.07
2024-01-11T10:53:41.746Z,8.88
2024-01-11T10:56:45.251Z,13.88
2024-01-11T10:59:50.189Z,13.57
2024-01-11T11:02:56.107Z,12.40
2024-01-11T11:06:01.022Z,11.67
2024-01-11T11:09:07.723Z,13.73
2024-01-11T11:12:12.544Z,13.18
2024-01-11T11:15:16.577Z,11.90
2024-01-11T11:18:26.433Z,11.13
2024-01-11T11:21:30.243Z,12.93
2024-01-11T11:24:36.670Z,12.50
2024-01-11T11:27:39.577Z,7.28
2024-01-11T11:30:44.494Z,12.30
2024-01-11T11:33:51.630Z,11.63
2024-01-11T11:36:57.369Z,10.90
2024-01-11T11:40:02.057Z,11.15
2024-01-11T11:43:06.905Z,7.05
2024-01-11T11:46:10.321Z,10.68
2024-01-11T11:49:15.016Z,9.87
2024-01-11T11:52:19.189Z,8.33
2024-01-11T11:55:25.739Z,11.40
2024-01-11T11:58:30.411Z,7.00
2024-01-11T12:01:35.346Z,11.00
2024-01-11T12:04:40.862Z,10.83
2024-01-11T12:07:44.179Z,9.33
2024-01-11T12:14:05.672Z,10.77
2024-01-11T12:17:10.632Z,7.85
2024-01-11T12:20:14.557Z,10.27
2024-01-11T12:23:20.216Z,11.17
2024-01-11T12:26:24.276Z,11.27
2024-01-11T12:29:36.810Z,13.32
2024-01-11T12:32:48.324Z,7.93
2024-01-11T12:35:51.965Z,12.40
2024-01-11T12:38:55.353Z,10.33
2024-01-11T12:41:59.328Z,8.85
2024-01-11T12:45:03.161Z,12.37
2024-01-11T12:48:12.490Z,10.57
2024-01-11T12:51:21.689Z,10.40
2024-01-11T12:54:26.168Z,12.60
2024-01-11T12:57:31.242Z,10.93
2024-01-11T13:00:34.612Z,12.20
2024-01-11T13:03:40.056Z,13.65
2024-01-11T13:06:43.863Z,12.97
2024-01-11T13:09:47.083Z,12.53
2024-01-11T13:12:56.754Z,9.32
2024-01-11T13:16:13.035Z,10.65
2024-01-11T13:19:24.229Z,12.07
2024-01-11T13:22:32.446Z,13.17
2024-01-11T13:25:37.825Z,11.43
2024-01-11T13:28:42.047Z,12.18
2024-01-11T13:31:45.858Z,11.12
2024-01-11T13:34:49.125Z,14.90
2024-01-11T13:37:52.870Z,13.23
2024-01-11T13:40:56.138Z,13.80
2024-01-11T13:44:01.495Z,15.13
2024-01-11T13:47:04.818Z,14.07
2024-01-11T13:50:09.239Z,16.08
2024-01-11T13:53:12.827Z,13.77
2024-01-11T13:56:17.593Z,11.30
2024-01-11T13:59:21.342Z,7.62
2024-01-11T14:02:25.387Z,10.82
2024-01-11T14:05:29.932Z,6.72
2024-01-11T14:08:33.644Z,18.60
2024-01-11T14:11:37.742Z,10.52
2024-01-11T14:14:40.755Z,18.45
2024-01-11T14:17:44.262Z,17.67
2024-01-11T14:20:47.979Z,17.35
2024-01-11T14:23:52.674Z,10.27
2024-01-11T14:26:55.885Z,16.30
2024-01-11T14:29:59.195Z,18.85
2024-01-11T14:33:03.609Z,17.75
2024-01-11T14:36:07.935Z,8.20
2024-01-11T14:39:11.410Z,18.33
2024-01-11T14:42:14.696Z,11.25
2024-01-11T14:45:18.608Z,14.25
2024-01-11T14:48:24.999Z,6.62
2024-01-11T14:51:32.864Z,10.15
2024-01-11T14:54:38.324Z,19.87
2024-01-11T14:57:41.873Z,16.58
2024-01-11T15:00:45.891Z,20.10
2024-01-11T15:03:49.483Z,21.23
2024-01-11T15:06:54.735Z,11.93
2024-01-11T15:09:58.106Z,14.63
2024-01-11T15:13:01.516Z,21.67
2024-01-11T15:16:04.906Z,18.90
2024-01-11T15:19:08.166Z,22.62
2024-01-11T15:22:13.823Z,22.35
2024-01-11T15:25:18.767Z,12.73
2024-01-11T15:28:23.907Z,20.00
2024-01-11T15:31:28.466Z,19.98
2024-01-11T15:34:31.601Z,23.03
2024-01-11T15:37:37.692Z,20.45
2024-01-11T15:40:40.651Z,19.37
2024-01-11T15:43:48.803Z,9.20
2024-01-11T15:46:51.868Z,15.07
2024-01-11T15:49:55.410Z,19.65
2024-01-11T15:52:58.478Z,18.27
2024-01-11T15:56:02.272Z,9.75
2024-01-11T15:59:05.308Z,20.20
2024-01-11T16:02:10.043Z,22.87
2024-01-11T16:05:13.693Z,22.10
2024-01-11T16:08:18.475Z,20.55
2024-01-11T16:11:23.586Z,21.52
2024-01-11T16:14:26.600Z,21.00
2024-01-11T16:17:32.228Z,19.52
2024-01-11T16:20:39.458Z,22.33
2024-01-11T16:23:43.597Z,22.40
2024-01-11T16:26:46.751Z,20.05
2024-01-11T16:29:50.430Z,20.85
2024-01-11T16:32:53.410Z,20.57
2024-01-11T16:35:59.278Z,19.02
2024-01-11T16:39:04.562Z,20.05
2024-01-11T16:42:13.385Z,20.30
2024-01-11T16:45:16.643Z,18.80
2024-01-11T16:48:20.202Z,17.52
2024-01-11T16:51:23.854Z,17.50
2024-01-11T16:54:27.233Z,20.33
2024-01-11T16:57:30.368Z,19.80
2024-01-11T17:00:33.738Z,19.67
2024-01-11T17:03:38.150Z,18.35
2024-01-11T17:06:41.803Z,21.20
2024-01-11T17:09:44.780Z,21.20
2024-01-11T17:12:49.299Z,22.20
2024-01-11T17:15:52.412Z,20.55
2024-01-11T17:18:55.991Z,18.80
2024-01-11T17:21:58.980Z,17.67
2024-01-11T17:25:03.526Z,18.12
2024-01-11T17:28:06.609Z,20.47
2024-01-11T17:31:09.846Z,21.12
2024-01-11T17:34:12.985Z,22.13
2024-01-11T17:37:22.043Z,22.02
2024-01-11T17:40:25.091Z,22.33
2024-01-11T17:43:29.652Z,24.00
2024-01-11T17:46:33.732Z,25.42
2024-01-11T17:49:45.867Z,24.47
2024-01-11T17:52:51.287Z,24.60
2024-01-11T17:55:55.533Z,21.40
2024-01-11T17:58:58.299Z,24.02
2024-01-11T18:02:02.259Z,20.48
2024-01-11T18:05:06.202Z,21.42
2024-01-11T18:08:09.437Z,22.02
2024-01-11T18:11:13.890Z,20.93
2024-01-11T18:14:18.000Z,20.83
2024-01-11T18:17:21.599Z,20.20
2024-01-11T18:20:24.510Z,17.40
2024-01-11T18:23:28.835Z,18.58
2024-01-11T18:26:31.794Z,19.12
2024-01-11T18:29:35.985Z,20.23
2024-01-11T18:32:39.005Z,17.10
2024-01-11T18:35:44.798Z,18.52
2024-01-11T18:38:48.351Z,16.33
2024-01-11T18:41:54.806Z,19.17
2024-01-11T18:44:59.397Z,24.77
2024-01-11T18:48:07.205Z,20.48
2024-01-11T18:51:10.338Z,25.12
2024-01-11T18:54:13.946Z,23.47
2024-01-11T18:57:17.536Z,23.08
2024-01-11T19:00:21.679Z,21.45
2024-01-11T19:03:25.653Z,23.27
2024-01-11T19:06:31.118Z,20.17
2024-01-11T19:09:34.353Z,20.23
2024-01-11T19:12:39.565Z,17.52
2024-01-11T19:15:42.651Z,18.07
2024-01-11T19:18:46.984Z,19.23
2024-01-11T19:21:51.195Z,17.65
2024-01-11T19:24:54.496Z,19.00
2024-01-11T19:28:01.057Z,18.80
2024-01-11T19:31:06.899Z,17.90
2024-01-11T19:34:11.676Z,19.52
2024-01-11T19:37:19.464Z,19.20
2024-01-11T19:40:24.547Z,21.47
2024-01-11T19:43:28.378Z,21.77
2024-01-11T19:46:35.113Z,20.90
2024-01-11T19:49:39.181Z,21.42
2024-01-11T19:52:43.078Z,19.47
2024-01-11T19:55:49.032Z,24.10
2024-01-11T19:58:53.848Z,24.85
2024-01-11T20:01:59.399Z,25.37
2024-01-11T20:05:06.393Z,25.60
2024-01-11T20:08:09.790Z,23.98
2024-01-11T20:11:13.926Z,23.62
2024-01-11T20:14:19.718Z,25.17
2024-01-11T20:17:23.775Z,24.27
2024-01-11T20:20:26.612Z,25.73
2024-01-11T20:23:30.685Z,25.25
2024-01-11T20:26:33.971Z,23.93
2024-01-11T20:29:37.148Z,24.83
2024-01-11T20:32:40.565Z,25.27
2024-01-11T20:35:45.043Z,27.13
2024-01-11T20:38:48.216Z,24.13
2024-01-11T20:41:51.874Z,24.67
2024-01-11T20:44:55.033Z,21.58
2024-01-11T20:47:58.702Z,20.77
2024-01-11T20:51:02.978Z,21.40
2024-01-11T20:54:06.331Z,21.25
2024-01-11T20:57:11.246Z,19.77
2024-01-11T21:00:17.840Z,19.17
2024-01-11T21:03:21.518Z,27.37
2024-01-11T21:06:24.829Z,25.37
2024-01-11T21:09:27.841Z,22.62
2024-01-11T21:12:31.043Z,26.07
2024-01-11T21:15:34.230Z,27.08
2024-01-11T21:18:37.829Z,26.58
2024-01-11T21:21:41.666Z,23.50
2024-01-11T21:24:46.184Z,17.87
2024-01-11T21:27:50.058Z,16.75
2024-01-11T21:30:53.410Z,15.70
2024-01-11T21:33:57.197Z,13.80
2024-01-11T21:37:02.341Z,13.70
2024-01-11T21:40:05.779Z,13.10
2024-01-11T21:43:10.080Z,9.13
2024-01-11T21:46:13.963Z,13.57
2024-01-11T21:49:20.370Z,13.13
2024-01-11T21:52:24.643Z,12.05
2024-01-11T21:55:27.829Z,6.72
2024-01-11T21:58:31.295Z,8.03
2024-01-11T22:01:42.862Z,13.75
2024-01-11T22:04:46.281Z,12.27
2024-01-11T22:07:50.461Z,12.00
2024-01-11T22:10:55.766Z,9.73
2024-01-11T22:13:59.450Z,12.65
2024-01-11T22:17:03.101Z,12.30
2024-01-11T22:20:07.081Z,9.53
2024-01-11T22:23:10.972Z,8.93
2024-01-11T22:26:13.919Z,12.98
2024-01-11T22:29:17.083Z,10.15
2024-01-11T22:32:20.004Z,13.60
2024-01-11T22:35:23.458Z,12.13
2024-01-11T22:38:29.453Z,12.75
2024-01-11T22:41:39.844Z,10.30
2024-01-11T22:44:45.378Z,13.10
2024-01-11T22:47:48.765Z,12.37
2024-01-11T22:50:51.847Z,11.18
2024-01-11T22:53:55.240Z,11.70
2024-01-11T22:56:58.393Z,11.35
2024-01-11T23:00:04.328Z,12.73
2024-01-11T23:03:07.326Z,12.87
2024-01-11T23:06:12.113Z,14.30
2024-01-11T23:09:15.029Z,12.70
2024-01-11T23:12:20.390Z,15.15
2024-01-11T23:15:23.917Z,9.57
2024-01-11T23:18:27.977Z,13.27
2024-01-11T23:21:30.912Z,12.90
2024-01-11T23:24:34.635Z,13.70
2024-01-11T23:27:37.705Z,14.35
2024-01-11T23:30:42.136Z,11.75
2024-01-11T23:33:45.387Z,12.37
2024-01-11T23:36:48.918Z,13.45
2024-01-11T23:39:52.012Z,13.40
2024-01-11T23:42:55.340Z,12.57
2024-01-11T23:45:58.486Z,7.53
2024-01-11T23:49:03.131Z,11.20
2024-01-11T23:52:07.031Z,9.98
2024-01-11T23:55:10.362Z,12.20
2024-01-11T23:58:13.524Z,11.23
